Time;durP1;ratioP1;P1;durP2;ratioP2;P2;SDS_P1;SDS_P2;PMS_P1;PMS_P2;Temp;Humidity;BMP_temperature;BMP_pressure;BME280_temperature;BME280_humidity;BME280_pressure;Samples;Min_cycle;Max_cycle;Signal;HPM_P1;HPM_P2
2022/08/01 00:03:17;;;;;;;2.37;2.17;;;;;;;;;;10394683;28;20252;-72
2022/08/01 00:08:18;;;;;;;2.87;2.17;;;;;;;;;;10388002;28;20228;-73
2022/08/01 00:13:19;;;;;;;2.17;2.00;;;;;;;;;;10397438;28;20332;-70
2022/08/01 00:18:26;;;;;;;2.30;1.77;;;;;;;;;;10400788;28;20699;-70
2022/08/01 00:23:30;;;;;;;2.13;1.93;;;;;;;;;;10399798;28;20606;-69
2022/08/01 00:28:31;;;;;;;3.37;2.00;;;;;;;;;;10397589;28;20319;-71
2022/08/01 00:33:32;;;;;;;2.07;1.80;;;;;;;;;;10401377;28;20312;-71
2022/08/01 00:38:36;;;;;;;2.93;2.10;;;;;;;;;;10401352;28;20283;-72
2022/08/01 00:43:37;;;;;;;2.93;1.97;;;;;;;;;;10405787;28;20232;-71
2022/08/01 00:48:40;;;;;;;5.80;2.07;;;;;;;;;;10391924;28;20231;-72
2022/08/01 00:53:41;;;;;;;6.27;2.60;;;;;;;;;;10390575;28;20601;-71
2022/08/01 00:58:45;;;;;;;2.13;1.93;;;;;;;;;;10398207;28;20221;-71
2022/08/01 01:03:46;;;;;;;1.83;1.70;;;;;;;;;;10409055;28;20217;-71
2022/08/01 01:08:49;;;;;;;2.87;1.80;;;;;;;;;;10399769;28;20257;-72
2022/08/01 01:13:52;;;;;;;2.27;1.80;;;;;;;;;;10398406;28;20692;-71
2022/08/01 01:18:55;;;;;;;1.80;1.70;;;;;;;;;;10394395;28;20603;-70
2022/08/01 01:23:59;;;;;;;4.47;1.93;;;;;;;;;;10395940;28;20714;-70
2022/08/01 01:29:17;;;;;;;1.83;1.73;;;;;;;;;;10397969;28;20247;-71
2022/08/01 01:34:20;;;;;;;2.00;1.80;;;;;;;;;;10393142;28;20216;-71
2022/08/01 01:39:21;;;;;;;3.17;1.67;;;;;;;;;;10397961;28;20230;-71
2022/08/01 01:44:25;;;;;;;2.73;1.97;;;;;;;;;;10406019;28;20221;-70
2022/08/01 01:49:28;;;;;;;1.97;1.70;;;;;;;;;;10401791;28;20212;-69
2022/08/01 01:54:31;;;;;;;3.23;1.80;;;;;;;;;;10403337;28;20221;-71
2022/08/01 01:59:38;;;;;;;2.47;2.00;;;;;;;;;;10393760;28;20710;-73
2022/08/01 02:04:42;;;;;;;1.90;1.80;;;;;;;;;;10398866;28;20291;-72
2022/08/01 02:09:43;;;;;;;2.03;1.80;;;;;;;;;;10396822;28;20208;-70
2022/08/01 02:14:46;;;;;;;2.93;1.77;;;;;;;;;;10378893;28;20223;-70
2022/08/01 02:19:47;;;;;;;3.00;1.83;;;;;;;;;;10396710;28;20702;-68
2022/08/01 02:25:08;;;;;;;1.83;1.70;;;;;;;;;;10401352;28;20209;-69
2022/08/01 02:30:16;;;;;;;2.57;1.60;;;;;;;;;;10402645;28;20255;-70
2022/08/01 02:35:25;;;;;;;4.70;1.60;;;;;;;;;;10392534;28;20263;-70
2022/08/01 02:40:30;;;;;;;2.70;1.33;;;;;;;;;;10399190;28;20228;-70
2022/08/01 02:45:32;;;;;;;1.53;1.43;;;;;;;;;;10406279;28;20691;-69
2022/08/01 02:50:34;;;;;;;1.93;1.67;;;;;;;;;;10403839;28;20220;-70
2022/08/01 02:55:39;;;;;;;1.87;1.70;;;;;;;;;;10390647;28;20225;-69
2022/08/01 03:00:41;;;;;;;1.60;1.27;;;;;;;;;;10392239;28;20229;-70
2022/08/01 03:05:43;;;;;;;1.57;1.37;;;;;;;;;;10387726;28;20300;-70
2022/08/01 03:10:45;;;;;;;2.30;1.40;;;;;;;;;;10394626;28;20225;-71
2022/08/01 03:15:53;;;;;;;3.73;1.50;;;;;;;;;;10393518;28;20587;-70
2022/08/01 03:20:55;;;;;;;1.67;1.27;;;;;;;;;;10394068;28;20283;-70
2022/08/01 03:26:02;;;;;;;1.37;1.13;;;;;;;;;;10396105;28;20239;-70
2022/08/01 03:31:05;;;;;;;3.70;1.37;;;;;;;;;;10393558;28;20236;-70
2022/08/01 03:36:08;;;;;;;1.50;1.30;;;;;;;;;;10401345;28;20221;-70
2022/08/01 03:41:09;;;;;;;2.20;1.33;;;;;;;;;;10399806;28;20257;-71
2022/08/01 03:46:12;;;;;;;1.60;1.33;;;;;;;;;;10394913;28;20266;-70
2022/08/01 03:51:13;;;;;;;1.83;1.27;;;;;;;;;;10405781;28;20217;-70
2022/08/01 03:56:17;;;;;;;1.73;1.50;;;;;;;;;;10403419;28;20256;-71
2022/08/01 04:01:18;;;;;;;1.47;1.37;;;;;;;;;;10399639;28;20591;-70
2022/08/01 04:06:20;;;;;;;2.73;1.40;;;;;;;;;;10401042;28;20228;-70
2022/08/01 04:11:22;;;;;;;3.20;1.87;;;;;;;;;;10400889;28;20754;-69
2022/08/01 04:16:23;;;;;;;2.87;1.63;;;;;;;;;;10397698;28;20229;-71
2022/08/01 04:21:29;;;;;;;5.67;1.70;;;;;;;;;;10400080;28;20213;-71
2022/08/01 04:26:30;;;;;;;4.00;1.40;;;;;;;;;;10400221;28;20224;-71
2022/08/01 04:31:32;;;;;;;1.73;1.37;;;;;;;;;;10400136;28;20226;-71
2022/08/01 04:36:41;;;;;;;1.63;1.40;;;;;;;;;;10406091;28;20224;-71
2022/08/01 04:41:43;;;;;;;7.60;1.80;;;;;;;;;;10406768;28;20217;-73
2022/08/01 04:46:44;;;;;;;3.83;1.60;;;;;;;;;;10406738;28;20296;-71
2022/08/01 04:51:59;;;;;;;3.43;1.60;;;;;;;;;;10393377;28;20423;-73
2022/08/01 04:57:01;;;;;;;5.00;2.07;;;;;;;;;;10405564;28;20710;-72
2022/08/01 05:02:02;;;;;;;3.43;1.47;;;;;;;;;;10398402;28;20231;-72
2022/08/01 05:07:03;;;;;;;1.60;1.50;;;;;;;;;;10407885;28;20231;-72
2022/08/01 05:12:05;;;;;;;3.23;1.60;;;;;;;;;;10405633;28;20235;-74
2022/08/01 05:17:07;;;;;;;1.37;1.27;;;;;;;;;;10404673;28;20242;-70
2022/08/01 05:22:09;;;;;;;2.97;1.47;;;;;;;;;;10405230;28;20227;-71
2022/08/01 05:27:10;;;;;;;2.47;1.07;;;;;;;;;;10404217;28;20224;-71
2022/08/01 05:32:14;;;;;;;3.87;1.80;;;;;;;;;;10401355;28;20227;-71
2022/08/01 05:37:15;;;;;;;3.67;1.60;;;;;;;;;;10397261;28;20232;-71
2022/08/01 05:42:16;;;;;;;1.43;1.30;;;;;;;;;;10396254;28;20283;-71
2022/08/01 05:47:17;;;;;;;1.37;1.23;;;;;;;;;;10401387;28;20231;-73
2022/08/01 05:52:18;;;;;;;3.60;1.27;;;;;;;;;;10393170;28;20228;-74
2022/08/01 05:57:19;;;;;;;2.40;1.50;;;;;;;;;;10401733;28;20228;-72
2022/08/01 06:02:21;;;;;;;1.33;1.20;;;;;;;;;;10391207;28;20255;-73
2022/08/01 06:07:22;;;;;;;4.00;1.57;;;;;;;;;;10404033;28;20232;-73
2022/08/01 06:12:23;;;;;;;1.33;1.23;;;;;;;;;;10404441;28;20226;-71
2022/08/01 06:17:24;;;;;;;1.87;1.53;;;;;;;;;;10404733;28;20224;-74
2022/08/01 06:22:25;;;;;;;4.17;1.30;;;;;;;;;;10410600;28;20248;-72
2022/08/01 06:27:26;;;;;;;3.37;1.73;;;;;;;;;;10397771;28;20249;-72
2022/08/01 06:32:27;;;;;;;3.40;1.27;;;;;;;;;;10407338;28;20227;-73
2022/08/01 06:37:32;;;;;;;2.77;1.10;;;;;;;;;;10410542;28;20268;-72
2022/08/01 06:42:37;;;;;;;2.57;1.50;;;;;;;;;;10395102;28;20710;-72
2022/08/01 06:47:41;;;;;;;6.53;1.63;;;;;;;;;;10397041;28;20757;-72
2022/08/01 06:52:42;;;;;;;2.63;1.30;;;;;;;;;;10406576;28;20330;-72
2022/08/01 06:58:10;;;;;;;4.73;1.57;;;;;;;;;;10405230;28;20232;-71
2022/08/01 07:03:11;;;;;;;1.37;1.30;;;;;;;;;;10396848;28;20225;-71
2022/08/01 07:08:12;;;;;;;1.50;1.10;;;;;;;;;;10410651;28;20229;-73
2022/08/01 07:13:14;;;;;;;3.03;1.60;;;;;;;;;;10403172;28;20437;-72
2022/08/01 07:18:15;;;;;;;3.53;1.50;;;;;;;;;;10400605;28;20262;-72
2022/08/01 07:23:17;;;;;;;1.73;1.23;;;;;;;;;;10403708;28;20676;-73
2022/08/01 07:28:19;;;;;;;4.77;2.20;;;;;;;;;;10384394;28;20319;-74
2022/08/01 07:33:22;;;;;;;3.17;1.17;;;;;;;;;;10389869;28;20690;-73
2022/08/01 07:38:23;;;;;;;3.37;1.10;;;;;;;;;;10401850;28;20276;-74
2022/08/01 07:43:25;;;;;;;1.97;0.90;;;;;;;;;;10389352;28;20225;-72
2022/08/01 07:48:26;;;;;;;1.43;1.00;;;;;;;;;;10405352;28;20806;-74
2022/08/01 07:53:31;;;;;;;3.53;1.33;;;;;;;;;;10389177;28;20639;-73
2022/08/01 07:58:32;;;;;;;1.70;1.40;;;;;;;;;;10407013;28;20232;-70
2022/08/01 08:03:33;;;;;;;3.10;1.23;;;;;;;;;;10376247;28;20297;-70
2022/08/01 08:08:34;;;;;;;3.40;1.57;;;;;;;;;;10379618;28;20311;-71
2022/08/01 08:13:35;;;;;;;3.07;1.47;;;;;;;;;;10391231;28;20883;-70
2022/08/01 08:18:38;;;;;;;2.47;1.13;;;;;;;;;;10381904;28;20587;-71
2022/08/01 08:28:58;;;;;;;2.73;1.30;;;;;;;;;;10398890;28;20224;-71
2022/08/01 08:33:59;;;;;;;2.23;1.20;;;;;;;;;;10406639;28;20273;-72
2022/08/01 08:39:01;;;;;;;1.80;1.27;;;;;;;;;;10388801;28;20231;-72
2022/08/01 08:44:03;;;;;;;3.57;1.20;;;;;;;;;;10414580;28;20228;-71
2022/08/01 08:49:04;;;;;;;1.90;1.27;;;;;;;;;;10402799;28;20236;-73
2022/08/01 08:54:07;;;;;;;4.20;1.37;;;;;;;;;;10409885;28;20360;-70
2022/08/01 08:59:08;;;;;;;4.33;1.50;;;;;;;;;;10406714;28;20955;-72
2022/08/01 09:04:10;;;;;;;4.50;1.53;;;;;;;;;;10413146;28;20225;-73
2022/08/01 09:09:11;;;;;;;3.40;1.63;;;;;;;;;;10411358;28;20251;-73
2022/08/01 09:14:13;;;;;;;1.17;1.10;;;;;;;;;;10415393;28;20232;-72
2022/08/01 09:19:17;;;;;;;7.13;1.90;;;;;;;;;;10413782;28;20225;-73
2022/08/01 09:24:19;;;;;;;2.63;1.57;;;;;;;;;;10414434;28;20216;-75
2022/08/01 09:29:24;;;;;;;2.13;1.50;;;;;;;;;;10410982;28;20233;-72
2022/08/01 09:34:27;;;;;;;1.60;1.40;;;;;;;;;;10406055;28;20230;-72
2022/08/01 09:39:30;;;;;;;4.00;1.40;;;;;;;;;;10402989;28;20243;-73
2022/08/01 09:44:38;;;;;;;30.23;2.27;;;;;;;;;;10409640;28;20251;-72
2022/08/01 09:49:40;;;;;;;2.63;1.50;;;;;;;;;;10385408;28;20232;-72
2022/08/01 09:54:43;;;;;;;3.03;1.40;;;;;;;;;;10394805;28;20224;-72
2022/08/01 09:59:48;;;;;;;2.73;1.90;;;;;;;;;;10384718;28;20221;-71
2022/08/01 10:04:50;;;;;;;2.03;1.57;;;;;;;;;;10402058;28;20217;-73
2022/08/01 10:09:51;;;;;;;2.13;1.23;;;;;;;;;;10408813;28;20216;-72
2022/08/01 10:14:55;;;;;;;2.23;1.50;;;;;;;;;;10389249;28;20215;-72
2022/08/01 10:19:56;;;;;;;1.73;1.50;;;;;;;;;;10400533;28;20213;-72
2022/08/01 10:24:58;;;;;;;2.77;1.40;;;;;;;;;;10410021;28;20338;-73
2022/08/01 10:30:03;;;;;;;2.50;1.70;;;;;;;;;;10401370;28;20236;-72
2022/08/01 10:35:05;;;;;;;2.33;1.80;;;;;;;;;;10404348;28;20595;-71
2022/08/01 10:40:07;;;;;;;2.07;1.50;;;;;;;;;;10408323;28;20317;-72
2022/08/01 10:45:10;;;;;;;2.27;1.67;;;;;;;;;;10408507;28;20275;-72
2022/08/01 10:50:28;;;;;;;3.60;1.60;;;;;;;;;;10401513;28;20220;-72
2022/08/01 10:55:29;;;;;;;1.30;1.00;;;;;;;;;;10405088;28;20212;-73
2022/08/01 11:00:30;;;;;;;2.53;1.40;;;;;;;;;;10393701;28;20222;-73
2022/08/01 11:05:32;;;;;;;1.37;1.27;;;;;;;;;;10405039;28;20319;-73
2022/08/01 11:10:42;;;;;;;1.73;1.10;;;;;;;;;;10407323;28;20597;-73
2022/08/01 11:15:43;;;;;;;3.37;1.60;;;;;;;;;;10404466;28;20305;-73
2022/08/01 11:20:57;;;;;;;1.40;1.30;;;;;;;;;;10389617;28;20238;-73
2022/08/01 11:26:01;;;;;;;1.23;1.13;;;;;;;;;;10400501;28;20347;-72
2022/08/01 11:31:07;;;;;;;1.45;1.40;;;;;;;;;;10406228;28;20236;-72
2022/08/01 11:36:11;;;;;;;1.10;1.10;;;;;;;;;;10405486;28;20220;-72
2022/08/01 11:41:13;;;;;;;1.23;1.20;;;;;;;;;;10406431;28;20220;-72
2022/08/01 11:46:14;;;;;;;1.30;1.30;;;;;;;;;;10407255;28;20267;-71
2022/08/01 11:51:17;;;;;;;2.50;1.30;;;;;;;;;;10405955;28;20375;-71
2022/08/01 11:56:19;;;;;;;1.63;1.20;;;;;;;;;;10406212;28;20220;-73
2022/08/01 12:01:22;;;;;;;2.03;1.40;;;;;;;;;;10389146;28;20599;-73
2022/08/01 12:06:29;;;;;;;1.53;1.43;;;;;;;;;;10380452;28;20289;-73
2022/08/01 12:11:30;;;;;;;1.77;1.67;;;;;;;;;;10414048;28;20250;-73
2022/08/01 12:16:31;;;;;;;1.53;1.43;;;;;;;;;;10403984;28;20244;-73
2022/08/01 12:21:32;;;;;;;1.43;1.33;;;;;;;;;;10396400;28;20239;-73
2022/08/01 12:26:43;;;;;;;1.67;1.57;;;;;;;;;;10413769;28;20235;-73
2022/08/01 12:31:44;;;;;;;1.80;1.30;;;;;;;;;;10412545;28;20295;-73
2022/08/01 12:36:45;;;;;;;2.57;1.70;;;;;;;;;;10409485;28;20224;-71
2022/08/01 12:41:46;;;;;;;1.70;1.57;;;;;;;;;;10394007;28;20634;-72
2022/08/01 12:46:47;;;;;;;5.17;1.50;;;;;;;;;;10413526;28;20762;-72
2022/08/01 12:51:48;;;;;;;1.30;1.20;;;;;;;;;;10412178;28;20236;-73
2022/08/01 12:56:50;;;;;;;2.13;1.30;;;;;;;;;;10409409;28;20244;-72
2022/08/01 13:01:52;;;;;;;2.70;2.10;;;;;;;;;;10413396;28;20707;-73
2022/08/01 13:06:54;;;;;;;2.50;1.60;;;;;;;;;;10412051;28;20229;-72
2022/08/01 13:11:55;;;;;;;2.30;1.20;;;;;;;;;;10403941;28;20562;-72
2022/08/01 13:16:56;;;;;;;1.83;1.50;;;;;;;;;;10395124;28;20312;-73
2022/08/01 13:21:58;;;;;;;1.50;1.40;;;;;;;;;;10403122;28;20682;-73
2022/08/01 13:27:00;;;;;;;2.60;1.20;;;;;;;;;;10407011;28;20265;-72
2022/08/01 13:32:13;;;;;;;2.90;1.43;;;;;;;;;;10404808;28;20224;-73
2022/08/01 13:37:14;;;;;;;1.53;1.43;;;;;;;;;;10406386;28;20237;-72
2022/08/01 13:42:15;;;;;;;1.67;1.57;;;;;;;;;;10407785;28;20232;-72
2022/08/01 13:47:16;;;;;;;2.63;1.57;;;;;;;;;;10404140;28;20260;-72
2022/08/01 13:52:18;;;;;;;3.23;1.70;;;;;;;;;;10404548;28;20224;-72
2022/08/01 13:57:19;;;;;;;1.67;1.53;;;;;;;;;;10409739;28;20765;-72
2022/08/01 14:02:26;;;;;;;1.33;1.23;;;;;;;;;;10402667;28;20342;-72
2022/08/01 14:07:27;;;;;;;1.73;1.50;;;;;;;;;;10391304;28;20229;-71
2022/08/01 14:12:29;;;;;;;3.00;1.50;;;;;;;;;;10404595;28;20962;-72
2022/08/01 14:17:30;;;;;;;1.87;1.20;;;;;;;;;;10399130;28;20771;-73
2022/08/01 14:22:31;;;;;;;2.20;1.40;;;;;;;;;;10401328;28;20680;-71
2022/08/01 14:27:35;;;;;;;4.27;1.40;;;;;;;;;;10404751;28;20255;-72
2022/08/01 14:32:37;;;;;;;3.13;1.43;;;;;;;;;;10385081;28;20838;-71
2022/08/01 14:37:38;;;;;;;1.93;1.33;;;;;;;;;;10405132;28;20217;-72
2022/08/01 14:42:39;;;;;;;4.30;1.27;;;;;;;;;;10406176;28;20298;-70
2022/08/01 14:47:41;;;;;;;2.53;1.50;;;;;;;;;;10403295;28;20694;-71
2022/08/01 14:52:43;;;;;;;1.93;1.70;;;;;;;;;;10402484;28;20248;-73
2022/08/01 14:57:44;;;;;;;4.37;1.30;;;;;;;;;;10389855;28;20228;-71
2022/08/01 15:02:45;;;;;;;1.27;1.17;;;;;;;;;;10393149;28;20224;-71
2022/08/01 15:07:46;;;;;;;4.63;1.20;;;;;;;;;;10394802;28;20256;-72
2022/08/01 15:12:48;;;;;;;1.80;1.13;;;;;;;;;;10392460;28;20230;-73
2022/08/01 15:17:51;;;;;;;1.73;1.20;;;;;;;;;;10387989;28;20227;-73
2022/08/01 15:22:52;;;;;;;1.53;1.30;;;;;;;;;;10394438;28;20727;-74
2022/08/01 15:27:53;;;;;;;5.03;1.47;;;;;;;;;;10387565;28;20226;-73
2022/08/01 15:32:54;;;;;;;21.20;4.00;;;;;;;;;;10394883;28;20572;-73
2022/08/01 15:37:55;;;;;;;7.40;3.00;;;;;;;;;;10386952;28;20405;-72
2022/08/01 15:42:56;;;;;;;5.10;3.20;;;;;;;;;;10384084;28;20315;-73
2022/08/01 15:47:57;;;;;;;5.40;2.80;;;;;;;;;;10393935;28;20213;-73
2022/08/01 15:52:58;;;;;;;5.07;3.33;;;;;;;;;;10393168;28;20227;-72
2022/08/01 15:57:59;;;;;;;5.57;4.17;;;;;;;;;;10387717;28;20260;-74
2022/08/01 16:03:00;;;;;;;3.60;2.70;;;;;;;;;;10401838;28;20256;-74
2022/08/01 16:08:01;;;;;;;5.03;3.70;;;;;;;;;;10385871;28;20600;-74
2022/08/01 16:13:02;;;;;;;5.07;2.80;;;;;;;;;;10393250;28;20261;-74
2022/08/01 16:18:04;;;;;;;2.10;1.90;;;;;;;;;;10385358;28;20278;-73
2022/08/01 16:23:05;;;;;;;2.17;1.90;;;;;;;;;;10392547;28;20225;-72
2022/08/01 16:28:08;;;;;;;7.20;2.80;;;;;;;;;;10385114;28;20229;-72
2022/08/01 16:33:09;;;;;;;7.83;3.20;;;;;;;;;;10391655;28;20221;-72
2022/08/01 16:38:11;;;;;;;6.70;3.40;;;;;;;;;;10392560;28;20244;-72
2022/08/01 16:43:12;;;;;;;4.47;2.50;;;;;;;;;;10394455;28;20225;-72
2022/08/01 16:48:23;;;;;;;4.37;2.50;;;;;;;;;;10398496;28;21010;-73
2022/08/01 16:53:24;;;;;;;3.23;2.10;;;;;;;;;;10389683;28;20231;-72
2022/08/01 16:58:28;;;;;;;4.23;2.47;;;;;;;;;;10392023;28;20224;-73
2022/08/01 17:03:29;;;;;;;4.37;2.70;;;;;;;;;;10399494;28;20224;-71
2022/08/01 17:08:30;;;;;;;6.10;3.30;;;;;;;;;;10403114;28;20232;-72
2022/08/01 17:13:31;;;;;;;4.73;3.63;;;;;;;;;;10397097;28;20244;-72
2022/08/01 17:18:32;;;;;;;5.37;3.93;;;;;;;;;;10393763;28;20260;-74
2022/08/01 17:23:36;;;;;;;5.50;3.30;;;;;;;;;;10396989;28;20220;-73
2022/08/01 17:28:39;;;;;;;7.60;4.97;;;;;;;;;;10389402;28;20232;-73
2022/08/01 17:33:42;;;;;;;5.53;4.60;;;;;;;;;;10393356;28;20218;-73
2022/08/01 17:38:46;;;;;;;7.17;4.03;;;;;;;;;;10397289;28;20315;-73
2022/08/01 17:43:47;;;;;;;5.23;4.03;;;;;;;;;;10398723;28;20242;-73
2022/08/01 17:48:48;;;;;;;5.03;3.70;;;;;;;;;;10406848;28;20609;-73
2022/08/01 17:53:49;;;;;;;4.97;4.00;;;;;;;;;;10398565;28;20221;-73
2022/08/01 17:58:50;;;;;;;5.03;4.13;;;;;;;;;;10398552;28;20213;-73
2022/08/01 18:03:51;;;;;;;6.73;4.40;;;;;;;;;;10380194;28;20217;-74
2022/08/01 18:08:53;;;;;;;5.00;4.07;;;;;;;;;;10389277;28;20322;-73
2022/08/01 18:13:54;;;;;;;5.23;4.73;;;;;;;;;;10390340;28;20238;-73
2022/08/01 18:18:59;;;;;;;5.97;4.50;;;;;;;;;;10398377;28;20603;-74
2022/08/01 18:24:01;;;;;;;4.57;4.13;;;;;;;;;;10398002;28;20234;-73
2022/08/01 18:29:02;;;;;;;5.07;4.57;;;;;;;;;;10388455;28;20227;-74
2022/08/01 18:34:03;;;;;;;6.80;5.03;;;;;;;;;;10395099;28;20218;-74
2022/08/01 18:39:06;;;;;;;4.40;3.83;;;;;;;;;;10395185;28;20232;-75
2022/08/01 18:44:07;;;;;;;5.63;4.30;;;;;;;;;;10401558;28;20220;-75
2022/08/01 18:49:09;;;;;;;5.27;4.17;;;;;;;;;;10407701;28;20235;-74
2022/08/01 18:54:11;;;;;;;6.83;4.67;;;;;;;;;;10398691;28;20222;-73
2022/08/01 18:59:12;;;;;;;5.87;4.60;;;;;;;;;;10392771;28;20679;-72
2022/08/01 19:04:14;;;;;;;4.63;4.23;;;;;;;;;;10401188;28;20231;-74
2022/08/01 19:09:15;;;;;;;5.97;4.10;;;;;;;;;;10393696;28;20288;-72
2022/08/01 19:14:16;;;;;;;4.53;4.13;;;;;;;;;;10394444;28;20219;-72
2022/08/01 19:19:20;;;;;;;5.33;4.57;;;;;;;;;;10391046;28;20270;-73
2022/08/01 19:24:21;;;;;;;5.20;4.60;;;;;;;;;;10389475;28;20216;-73
2022/08/01 19:29:23;;;;;;;5.43;4.57;;;;;;;;;;10393595;28;20229;-71
2022/08/01 19:34:24;;;;;;;8.73;4.47;;;;;;;;;;10389929;28;20221;-73
2022/08/01 19:39:28;;;;;;;6.03;4.60;;;;;;;;;;10387780;28;20237;-74
2022/08/01 19:44:29;;;;;;;5.20;4.30;;;;;;;;;;10387622;28;20222;-74
2022/08/01 19:49:31;;;;;;;6.37;4.47;;;;;;;;;;10397799;28;21009;-74
2022/08/01 19:54:39;;;;;;;6.80;4.33;;;;;;;;;;10396313;28;20201;-73
2022/08/01 19:59:43;;;;;;;6.13;4.87;;;;;;;;;;10393550;28;20232;-73
2022/08/01 20:04:45;;;;;;;9.07;4.80;;;;;;;;;;10395531;28;20268;-73
2022/08/01 20:09:47;;;;;;;5.60;5.10;;;;;;;;;;10393377;28;21032;-73
2022/08/01 20:14:52;;;;;;;5.60;4.83;;;;;;;;;;10392733;28;20759;-75
2022/08/01 20:19:53;;;;;;;6.77;5.17;;;;;;;;;;10371741;28;20214;-74
2022/08/01 20:24:57;;;;;;;4.87;4.40;;;;;;;;;;10386130;28;20604;-73
2022/08/01 20:30:00;;;;;;;7.53;4.70;;;;;;;;;;10389917;28;20222;-72
2022/08/01 20:35:02;;;;;;;8.37;4.93;;;;;;;;;;10404430;28;20214;-73
2022/08/01 20:40:03;;;;;;;5.23;4.73;;;;;;;;;;10402045;28;20685;-73
2022/08/01 20:45:11;;;;;;;4.20;3.80;;;;;;;;;;10392223;28;20356;-73
2022/08/01 20:55:38;;;;;;;6.47;4.33;;;;;;;;;;10399860;28;20217;-72
2022/08/01 21:00:41;;;;;;;6.57;4.50;;;;;;;;;;10389495;28;20296;-74
2022/08/01 21:05:43;;;;;;;4.33;3.93;;;;;;;;;;10399704;28;20303;-73
2022/08/01 21:10:45;;;;;;;4.33;3.93;;;;;;;;;;10399466;28;20232;-74
2022/08/01 21:15:53;;;;;;;6.90;4.40;;;;;;;;;;10403197;28;20220;-73
2022/08/01 21:20:59;;;;;;;6.63;4.40;;;;;;;;;;10399609;28;20274;-73
2022/08/01 21:26:00;;;;;;;4.23;3.83;;;;;;;;;;10390107;28;20272;-73
2022/08/01 21:31:02;;;;;;;6.03;3.93;;;;;;;;;;10398207;28;20234;-73
2022/08/01 21:36:03;;;;;;;7.23;4.67;;;;;;;;;;10391907;28;20233;-73
2022/08/01 21:41:08;;;;;;;5.10;4.30;;;;;;;;;;10395104;28;20229;-75
2022/08/01 21:46:10;;;;;;;4.90;4.30;;;;;;;;;;10398357;28;20275;-77
2022/08/01 21:51:30;;;;;;;6.27;3.83;;;;;;;;;;10392012;28;20605;-77
2022/08/01 21:56:34;;;;;;;5.57;4.67;;;;;;;;;;10401647;28;20316;-77
2022/08/01 22:02:01;;;;;;;6.80;4.53;;;;;;;;;;10399465;28;20235;-75
2022/08/01 22:07:05;;;;;;;7.60;4.60;;;;;;;;;;10389353;28;20260;-74
2022/08/01 22:12:06;;;;;;;5.80;4.23;;;;;;;;;;10396533;28;20217;-74
2022/08/01 22:17:07;;;;;;;5.80;4.87;;;;;;;;;;10388671;28;20247;-74
2022/08/01 22:22:09;;;;;;;5.33;4.70;;;;;;;;;;10395835;28;20224;-75
2022/08/01 22:27:22;;;;;;;8.37;4.60;;;;;;;;;;10389315;28;20233;-75
2022/08/01 22:32:30;;;;;;;4.97;4.57;;;;;;;;;;10393077;28;20651;-74
2022/08/01 22:37:31;;;;;;;5.03;4.20;;;;;;;;;;10392347;28;20223;-75
2022/08/01 22:42:41;;;;;;;5.07;4.20;;;;;;;;;;10394560;28;20703;-75
2022/08/01 22:48:04;;;;;;;4.43;4.13;;;;;;;;;;10393944;28;20232;-75
2022/08/01 22:53:10;;;;;;;5.43;4.03;;;;;;;;;;10394541;28;20217;-73
2022/08/01 22:58:14;;;;;;;5.27;4.87;;;;;;;;;;10395947;28;20738;-75
2022/08/01 23:03:23;;;;;;;5.03;4.53;;;;;;;;;;10390003;28;20251;-74
2022/08/01 23:08:24;;;;;;;5.57;4.60;;;;;;;;;;10390688;28;20271;-75
2022/08/01 23:13:26;;;;;;;5.17;4.50;;;;;;;;;;10389432;28;20671;-73
2022/08/01 23:18:28;;;;;;;6.43;5.30;;;;;;;;;;10390582;28;20312;-73
2022/08/01 23:23:30;;;;;;;5.07;4.57;;;;;;;;;;10394568;28;20221;-73
2022/08/01 23:28:31;;;;;;;6.63;5.00;;;;;;;;;;10390240;28;20601;-72
2022/08/01 23:33:32;;;;;;;6.83;4.30;;;;;;;;;;10389748;28;20228;-74
2022/08/01 23:38:33;;;;;;;6.03;4.37;;;;;;;;;;10391565;28;20228;-73
2022/08/01 23:43:34;;;;;;;5.13;4.03;;;;;;;;;;10401802;28;20278;-73
2022/08/01 23:48:35;;;;;;;4.80;4.07;;;;;;;;;;10387380;28;20229;-73
2022/08/01 23:53:36;;;;;;;4.53;4.13;;;;;;;;;;10392887;28;20239;-74
2022/08/01 23:58:37;;;;;;;4.30;3.60;;;;;;;;;;10376501;28;20578;-74
